createdAt,value
2022-09-06T00:02:22.067Z,56.46
2022-09-06T00:04:50.608Z,57.17
2022-09-06T00:07:18.582Z,57.16
2022-09-06T00:09:46.830Z,56.62
2022-09-06T00:12:16.216Z,56.70
2022-09-06T00:14:44.218Z,56.64
2022-09-06T00:17:12.597Z,56.76
2022-09-06T00:19:40.628Z,57.23
2022-09-06T00:22:08.520Z,57.50
2022-09-06T00:24:37.259Z,57.76
2022-09-06T00:27:05.693Z,57.98
2022-09-06T00:29:35.361Z,58.09
2022-09-06T00:32:03.874Z,58.20
2022-09-06T00:34:32.078Z,58.14
2022-09-06T00:37:00.126Z,57.85
2022-09-06T00:39:28.580Z,57.56
2022-09-06T00:41:56.967Z,57.65
2022-09-06T00:44:24.940Z,57.52
2022-09-06T00:46:55.452Z,57.87
2022-09-06T00:49:29.316Z,58.01
2022-09-06T00:52:02.789Z,58.99
2022-09-06T00:54:31.194Z,59.53
2022-09-06T00:56:59.449Z,59.75
2022-09-06T00:59:28.438Z,59.46
2022-09-06T01:01:58.202Z,59.62
2022-09-06T01:04:26.770Z,59.55
2022-09-06T01:07:04.254Z,59.53
2022-09-06T01:09:47.714Z,59.70
2022-09-06T01:12:28.342Z,59.61
2022-09-06T01:15:06.974Z,59.66
2022-09-06T01:17:45.045Z,59.79
2022-09-06T01:20:30.292Z,59.66
2022-09-06T01:23:18.421Z,59.49
2022-09-06T01:25:54.777Z,59.59
2022-09-06T01:28:42.090Z,59.33
2022-09-06T01:31:25.663Z,59.63
2022-09-06T01:34:09.062Z,59.28
2022-09-06T01:36:54.403Z,59.75
2022-09-06T01:39:32.628Z,60.04
2022-09-06T01:42:05.904Z,59.78
2022-09-06T01:44:36.291Z,59.70
2022-09-06T01:47:12.261Z,59.64
2022-09-06T01:49:48.197Z,59.74
2022-09-06T01:52:19.480Z,59.51
2022-09-06T01:54:56.758Z,59.68
2022-09-06T01:57:33.984Z,59.36
2022-09-06T02:00:09.243Z,59.37
2022-09-06T02:02:47.899Z,59.50
2022-09-06T02:05:21.660Z,59.49
2022-09-06T02:07:50.775Z,59.43
2022-09-06T02:10:24.857Z,59.52
2022-09-06T02:12:55.250Z,58.99
2022-09-06T02:15:27.438Z,59.67
2022-09-06T02:17:58.470Z,59.79
2022-09-06T02:20:28.697Z,60.09
2022-09-06T02:22:57.775Z,60.25
2022-09-06T02:25:28.141Z,60.37
2022-09-06T02:27:56.667Z,60.30
2022-09-06T02:30:26.477Z,59.74
2022-09-06T02:32:59.134Z,60.25
2022-09-06T02:35:27.466Z,62.48
2022-09-06T02:37:56.397Z,63.42
2022-09-06T02:40:24.628Z,64.04
2022-09-06T02:42:54.049Z,64.66
2022-09-06T02:45:22.044Z,64.73
2022-09-06T02:47:51.352Z,64.44
2022-09-06T02:50:19.243Z,64.76
2022-09-06T02:52:47.191Z,65.00
2022-09-06T02:55:15.562Z,64.53
2022-09-06T02:57:43.864Z,65.27
2022-09-06T03:00:12.852Z,64.77
2022-09-06T03:02:40.840Z,64.88
2022-09-06T03:05:11.173Z,64.81
2022-09-06T03:07:39.190Z,64.63
2022-09-06T03:10:07.979Z,64.48
2022-09-06T03:12:35.906Z,64.91
2022-09-06T03:15:04.246Z,65.07
2022-09-06T03:17:32.362Z,65.23
2022-09-06T03:20:00.784Z,66.87
2022-09-06T03:22:30.042Z,68.24
2022-09-06T03:24:58.241Z,69.43
2022-09-06T03:27:26.171Z,70.66
2022-09-06T03:29:54.187Z,70.48
2022-09-06T03:32:22.417Z,70.72
2022-09-06T03:34:50.406Z,71.19
2022-09-06T03:37:19.476Z,72.18
2022-09-06T03:39:48.808Z,72.98
2022-09-06T03:42:16.856Z,73.08
2022-09-06T03:44:44.783Z,73.22
2022-09-06T03:47:15.561Z,72.99
2022-09-06T03:49:46.858Z,73.11
2022-09-06T03:52:15.333Z,73.39
2022-09-06T03:54:43.202Z,72.87
2022-09-06T03:57:12.488Z,72.80
2022-09-06T03:59:40.444Z,72.44
2022-09-06T04:02:08.502Z,72.95
2022-09-06T04:04:36.632Z,72.11
2022-09-06T04:07:04.620Z,72.82
2022-09-06T04:09:32.643Z,73.13
2022-09-06T04:12:00.786Z,73.35
2022-09-06T04:14:30.159Z,73.37
2022-09-06T04:16:58.394Z,73.56
2022-09-06T04:19:26.424Z,73.75
2022-09-06T04:21:54.384Z,73.95
2022-09-06T04:24:22.407Z,74.09
2022-09-06T04:26:50.370Z,74.62
2022-09-06T04:29:18.329Z,75.31
2022-09-06T04:31:47.796Z,74.57
2022-09-06T04:34:16.449Z,76.76
2022-09-06T04:36:48.135Z,77.17
2022-09-06T04:39:16.449Z,76.97
2022-09-06T04:41:44.380Z,77.57
2022-09-06T04:44:12.355Z,78.65
2022-09-06T04:46:42.758Z,78.78
2022-09-06T04:49:12.084Z,79.08
2022-09-06T04:51:40.315Z,79.45
2022-09-06T04:54:08.278Z,78.96
2022-09-06T04:56:36.630Z,79.07
2022-09-06T04:59:04.744Z,79.25
2022-09-06T05:01:32.923Z,78.89
2022-09-06T05:04:01.255Z,78.34
2022-09-06T05:06:32.118Z,78.13
2022-09-06T05:09:00.102Z,77.88
2022-09-06T05:11:28.136Z,77.27
2022-09-06T05:13:56.110Z,76.68
2022-09-06T05:16:24.185Z,77.06
2022-09-06T05:18:52.218Z,76.99
2022-09-06T05:21:20.217Z,76.42
2022-09-06T05:23:49.825Z,76.02
2022-09-06T05:26:17.892Z,75.32
2022-09-06T05:28:45.932Z,74.91
2022-09-06T05:31:28.497Z,75.30
2022-09-06T05:33:57.646Z,74.85
2022-09-06T05:36:26.192Z,74.51
2022-09-06T05:38:56.867Z,74.54
2022-09-06T05:41:25.574Z,74.92
2022-09-06T05:43:53.842Z,74.73
2022-09-06T05:46:22.098Z,74.15
2022-09-06T05:48:54.494Z,74.57
2022-09-06T05:51:22.459Z,74.18
2022-09-06T05:53:50.474Z,74.35
2022-09-06T05:56:22.599Z,74.30
2022-09-06T05:58:54.335Z,74.40
2022-09-06T06:01:23.905Z,74.28
2022-09-06T06:03:52.857Z,74.30
2022-09-06T06:06:21.785Z,74.25
2022-09-06T06:08:50.031Z,74.48
2022-09-06T06:11:19.535Z,74.51
2022-09-06T06:13:47.538Z,74.42
2022-09-06T06:16:16.922Z,74.29
2022-09-06T06:18:51.278Z,73.66
2022-09-06T06:21:22.229Z,73.89
2022-09-06T06:23:52.237Z,73.95
2022-09-06T06:26:21.796Z,73.58
2022-09-06T06:28:49.962Z,73.87
2022-09-06T06:31:19.416Z,73.61
2022-09-06T06:33:47.457Z,73.28
2022-09-06T06:36:23.334Z,73.38
2022-09-06T06:38:54.515Z,72.90
2022-09-06T06:41:25.337Z,72.63
2022-09-06T06:43:54.112Z,72.43
2022-09-06T06:46:22.980Z,71.82
2022-09-06T06:48:54.729Z,72.44
2022-09-06T06:51:25.844Z,71.70
2022-09-06T06:53:56.311Z,71.57
2022-09-06T06:56:27.367Z,71.61
2022-09-06T06:58:57.526Z,70.85
2022-09-06T07:01:27.034Z,70.77
2022-09-06T07:03:55.501Z,70.84
2022-09-06T07:09:13.773Z,70.21
2022-09-06T07:11:44.517Z,69.39
2022-09-06T07:14:14.584Z,69.35
2022-09-06T07:16:42.719Z,69.00
2022-09-06T07:22:02.887Z,67.67
2022-09-06T07:24:36.222Z,67.00
2022-09-06T07:29:53.577Z,66.57
2022-09-06T07:32:21.546Z,66.15
2022-09-06T07:34:49.458Z,65.78
2022-09-06T07:37:17.486Z,66.02
2022-09-06T07:39:45.703Z,65.74
2022-09-06T07:42:16.288Z,65.05
2022-09-06T07:44:44.610Z,64.28
2022-09-06T07:53:14.844Z,63.39
2022-09-06T07:55:43.672Z,63.65
2022-09-06T07:58:13.046Z,63.77
2022-09-06T08:00:41.624Z,63.72
2022-09-06T08:03:09.833Z,62.96
2022-09-06T08:11:17.918Z,61.89
2022-09-06T08:13:50.622Z,61.25
2022-09-06T08:16:20.140Z,60.04
2022-09-06T08:18:51.899Z,59.34
2022-09-06T08:21:20.324Z,59.11
2022-09-06T08:23:49.744Z,57.91
2022-09-06T08:26:21.071Z,57.72
2022-09-06T08:28:54.381Z,56.01
2022-09-06T08:31:22.451Z,55.74
2022-09-06T08:33:50.644Z,54.75
2022-09-06T08:36:19.013Z,53.56
2022-09-06T08:38:46.958Z,53.44
2022-09-06T08:41:24.294Z,52.20
2022-09-06T08:46:49.426Z,51.58
2022-09-06T08:49:17.737Z,50.61
2022-09-06T08:52:13.417Z,50.71
2022-09-06T08:54:42.557Z,50.77
2022-09-06T08:57:15.367Z,50.75
2022-09-06T08:59:44.791Z,51.60
2022-09-06T09:02:14.974Z,50.97
2022-09-06T09:04:45.946Z,50.97
2022-09-06T09:07:31.039Z,50.75
2022-09-06T09:09:59.811Z,48.76
2022-09-06T09:12:29.357Z,48.59
2022-09-06T09:15:03.442Z,48.20
2022-09-06T09:17:32.769Z,48.08
2022-09-06T09:20:00.678Z,47.48
2022-09-06T09:22:29.327Z,48.14
2022-09-06T09:24:59.586Z,48.82
2022-09-06T09:27:29.155Z,48.08
2022-09-06T09:32:51.953Z,48.66
2022-09-06T09:35:27.980Z,48.10
2022-09-06T09:38:09.501Z,47.95
2022-09-06T09:40:41.935Z,47.01
2022-09-06T09:43:15.518Z,46.86
2022-09-06T09:45:45.264Z,47.48
2022-09-06T09:48:22.431Z,48.52
2022-09-06T09:50:50.354Z,49.37
2022-09-06T09:53:21.069Z,49.46
2022-09-06T09:55:49.501Z,49.37
2022-09-06T09:58:21.977Z,49.49
2022-09-06T10:01:10.685Z,49.21
2022-09-06T10:09:19.824Z,48.15
2022-09-06T10:11:55.815Z,47.25
2022-09-06T10:14:28.431Z,47.12
2022-09-06T10:16:58.234Z,47.56
2022-09-06T10:19:39.725Z,47.59
2022-09-06T10:22:20.203Z,47.06
2022-09-06T10:25:08.258Z,47.21
2022-09-06T10:27:42.529Z,46.46
2022-09-06T10:30:14.592Z,46.52
2022-09-06T10:32:48.133Z,46.32
2022-09-06T10:35:23.987Z,46.19
2022-09-06T10:38:13.479Z,46.38
2022-09-06T10:40:48.293Z,45.59
2022-09-06T10:43:19.762Z,45.17
2022-09-06T10:45:55.969Z,44.44
2022-09-06T10:48:28.855Z,44.63
2022-09-06T10:50:59.286Z,44.56
2022-09-06T10:53:42.593Z,45.56
2022-09-06T10:56:12.816Z,45.21
2022-09-06T11:01:42.943Z,44.98
2022-09-06T11:04:20.459Z,43.75
2022-09-06T11:06:52.609Z,44.33
2022-09-06T11:09:26.664Z,43.82
2022-09-06T11:12:00.676Z,44.89
2022-09-06T11:14:28.903Z,44.12
2022-09-06T11:17:00.753Z,45.33
2022-09-06T11:19:33.256Z,45.43
2022-09-06T11:22:29.242Z,45.57
2022-09-06T11:25:31.663Z,44.34
2022-09-06T11:28:01.454Z,44.59
2022-09-06T11:30:30.268Z,44.20
2022-09-06T11:33:11.627Z,43.64
2022-09-06T11:35:42.234Z,44.40
2022-09-06T11:38:22.312Z,44.72
2022-09-06T11:40:56.082Z,44.46
2022-09-06T11:43:46.520Z,45.18
2022-09-06T11:46:48.587Z,45.63
2022-09-06T11:49:40.063Z,45.10
2022-09-06T11:52:41.765Z,45.26
2022-09-06T11:55:13.887Z,46.19
2022-09-06T11:57:42.806Z,47.13
2022-09-06T12:00:20.910Z,46.90
2022-09-06T12:02:49.014Z,46.22
2022-09-06T12:05:37.425Z,46.34
2022-09-06T12:08:33.310Z,45.46
2022-09-06T12:11:18.854Z,44.75
2022-09-06T12:14:06.134Z,46.10
2022-09-06T12:17:26.338Z,45.49
2022-09-06T12:20:06.423Z,44.55
2022-09-06T12:22:54.569Z,44.28
2022-09-06T12:25:52.635Z,43.35
2022-09-06T12:28:46.921Z,43.57
2022-09-06T12:31:38.434Z,43.75
2022-09-06T12:34:13.823Z,44.16
2022-09-06T12:36:55.809Z,44.42
2022-09-06T12:39:24.396Z,44.45
2022-09-06T12:41:55.215Z,44.98
2022-09-06T12:44:30.591Z,45.25
2022-09-06T12:47:04.613Z,46.07
2022-09-06T12:49:32.573Z,46.08
2022-09-06T12:52:12.237Z,46.20
2022-09-06T12:54:46.733Z,44.45
2022-09-06T12:57:18.308Z,44.30
2022-09-06T12:59:53.662Z,44.40
2022-09-06T13:02:26.594Z,44.47
2022-09-06T13:04:58.036Z,44.42
2022-09-06T13:07:27.200Z,44.55
2022-09-06T13:09:56.529Z,44.57
2022-09-06T13:12:27.384Z,44.43
2022-09-06T13:14:58.153Z,44.76
2022-09-06T13:17:28.537Z,44.75
2022-09-06T13:19:58.142Z,45.02
2022-09-06T13:22:44.205Z,44.60
2022-09-06T13:25:20.569Z,44.97
2022-09-06T13:27:51.188Z,45.07
2022-09-06T13:30:38.705Z,45.43
2022-09-06T13:33:07.957Z,45.68
2022-09-06T13:35:37.582Z,45.29
2022-09-06T13:38:33.096Z,45.35
2022-09-06T13:41:17.088Z,44.30
2022-09-06T13:43:47.651Z,44.26
2022-09-06T13:46:17.277Z,44.68
2022-09-06T13:48:45.385Z,44.36
2022-09-06T13:51:13.393Z,45.08
2022-09-06T13:53:41.245Z,45.14
2022-09-06T13:56:09.447Z,45.12
2022-09-06T13:58:37.365Z,45.58
2022-09-06T14:01:08.674Z,45.62
2022-09-06T14:03:39.260Z,45.29
2022-09-06T14:06:08.248Z,45.17
2022-09-06T14:09:02.945Z,45.22
2022-09-06T14:11:25.588Z,45.82
2022-09-06T14:13:53.581Z,45.29
2022-09-06T14:16:21.592Z,44.99
2022-09-06T14:18:51.993Z,45.54
2022-09-06T14:21:19.966Z,45.73
2022-09-06T14:23:51.005Z,46.04
2022-09-06T14:26:21.057Z,46.43
2022-09-06T14:28:49.411Z,46.64
2022-09-06T14:31:18.837Z,46.41
2022-09-06T14:33:46.721Z,46.39
2022-09-06T14:36:17.604Z,46.84
2022-09-06T14:38:46.445Z,47.35
2022-09-06T14:41:15.581Z,47.26
2022-09-06T14:43:44.832Z,47.58
2022-09-06T14:46:14.874Z,47.60
2022-09-06T14:48:43.749Z,47.57
2022-09-06T14:51:13.150Z,47.89
2022-09-06T14:53:43.575Z,47.96
2022-09-06T14:56:12.829Z,48.37
2022-09-06T14:58:41.885Z,48.26
2022-09-06T15:01:13.238Z,48.36
2022-09-06T15:03:42.811Z,48.59
2022-09-06T15:06:11.656Z,48.76
2022-09-06T15:08:39.741Z,48.95
2022-09-06T15:11:12.726Z,49.69
2022-09-06T15:13:43.294Z,49.92
2022-09-06T15:16:12.162Z,50.95
2022-09-06T15:18:40.073Z,52.46
2022-09-06T15:21:11.362Z,52.51
2022-09-06T15:23:39.677Z,53.35
2022-09-06T15:26:09.915Z,54.35
2022-09-06T15:28:39.040Z,55.86
2022-09-06T15:31:08.283Z,57.08
2022-09-06T15:33:37.697Z,57.68
2022-09-06T15:36:07.210Z,58.29
2022-09-06T15:38:36.044Z,61.23
2022-09-06T15:41:08.402Z,62.84
2022-09-06T15:43:41.753Z,63.67
2022-09-06T15:46:10.278Z,64.38
2022-09-06T15:48:42.443Z,64.51
2022-09-06T15:51:10.933Z,64.31
2022-09-06T15:53:38.910Z,64.61
2022-09-06T15:56:07.400Z,65.07
2022-09-06T15:58:35.628Z,66.30
2022-09-06T16:01:07.892Z,67.25
2022-09-06T16:03:40.391Z,67.23
2022-09-06T16:06:26.139Z,66.51
2022-09-06T16:08:59.877Z,67.02
2022-09-06T16:11:28.271Z,67.05
2022-09-06T16:13:56.656Z,68.69
2022-09-06T16:16:26.476Z,68.17
2022-09-06T16:18:54.413Z,67.59
2022-09-06T16:21:25.162Z,68.32
2022-09-06T16:23:57.804Z,68.15
2022-09-06T16:26:27.670Z,67.42
2022-09-06T16:28:56.036Z,66.55
2022-09-06T16:31:26.173Z,66.83
2022-09-06T16:33:54.432Z,66.68
2022-09-06T16:36:23.132Z,66.84
2022-09-06T16:38:51.527Z,66.48
2022-09-06T16:41:21.186Z,65.33
2022-09-06T16:43:50.168Z,65.43
2022-09-06T16:46:18.601Z,64.59
2022-09-06T16:48:53.192Z,64.00
2022-09-06T16:51:22.989Z,64.23
2022-09-06T16:53:51.291Z,64.67
2022-09-06T16:56:20.641Z,64.08
2022-09-06T16:58:51.571Z,64.12
2022-09-06T17:01:19.687Z,64.45
2022-09-06T17:03:48.294Z,65.11
2022-09-06T17:06:17.806Z,65.07
2022-09-06T17:08:46.300Z,65.03
2022-09-06T17:11:16.030Z,66.49
2022-09-06T17:13:45.506Z,66.03
2022-09-06T17:16:31.430Z,65.88
2022-09-06T17:19:01.333Z,65.79
2022-09-06T17:21:31.048Z,64.01
2022-09-06T17:24:04.143Z,63.77
2022-09-06T17:26:33.242Z,63.79
2022-09-06T17:29:01.563Z,64.27
2022-09-06T17:31:30.244Z,65.30
2022-09-06T17:33:59.660Z,65.73
2022-09-06T17:36:30.586Z,66.53
2022-09-06T17:39:07.891Z,68.21
2022-09-06T17:41:37.850Z,69.21
2022-09-06T17:44:06.754Z,70.49
2022-09-06T17:46:34.961Z,70.63
2022-09-06T17:49:04.709Z,70.53
2022-09-06T17:51:32.896Z,71.19
2022-09-06T17:54:01.365Z,70.90
2022-09-06T17:56:31.158Z,71.56
2022-09-06T17:59:00.148Z,71.32
2022-09-06T18:01:30.512Z,71.40
2022-09-06T18:03:59.462Z,71.78
2022-09-06T18:06:29.499Z,71.88
2022-09-06T18:08:59.619Z,72.01
2022-09-06T18:11:29.504Z,71.83
2022-09-06T18:14:00.434Z,71.68
2022-09-06T18:16:29.037Z,71.23
2022-09-06T18:18:58.649Z,70.87
2022-09-06T18:21:27.804Z,70.39
2022-09-06T18:23:55.916Z,69.49
2022-09-06T18:26:24.606Z,68.98
2022-09-06T18:28:54.062Z,68.79
2022-09-06T18:31:25.535Z,68.35
2022-09-06T18:33:55.652Z,67.98
2022-09-06T18:36:31.208Z,67.53
2022-09-06T18:39:02.736Z,67.49
2022-09-06T18:41:48.358Z,67.18
2022-09-06T18:44:19.537Z,67.47
2022-09-06T18:46:48.993Z,67.44
2022-09-06T18:49:17.522Z,68.28
2022-09-06T18:51:46.139Z,69.20
2022-09-06T18:54:14.611Z,68.83
2022-09-06T18:56:44.837Z,69.41
2022-09-06T18:59:15.983Z,69.63
2022-09-06T19:01:44.463Z,69.62
2022-09-06T19:04:14.329Z,70.22
2022-09-06T19:06:43.677Z,71.11
2022-09-06T19:09:14.043Z,71.59
2022-09-06T19:11:52.795Z,71.36
2022-09-06T19:14:22.018Z,71.01
2022-09-06T19:16:51.860Z,71.52
2022-09-06T19:19:23.467Z,70.91
2022-09-06T19:21:56.475Z,70.96
2022-09-06T19:24:28.170Z,70.33
2022-09-06T19:26:56.725Z,70.54
2022-09-06T19:29:25.281Z,70.55
2022-09-06T19:31:54.443Z,70.81
2022-09-06T19:34:24.290Z,70.42
2022-09-06T19:36:55.254Z,70.31
2022-09-06T19:39:23.592Z,70.18
2022-09-06T19:41:54.355Z,69.71
2022-09-06T19:44:22.842Z,69.94
2022-09-06T19:46:51.222Z,70.25
2022-09-06T19:49:20.523Z,70.06
2022-09-06T19:51:51.516Z,70.61
2022-09-06T19:54:19.854Z,70.75
2022-09-06T19:56:48.233Z,70.67
2022-09-06T19:59:17.885Z,70.74
2022-09-06T20:01:47.273Z,71.19
2022-09-06T20:04:16.045Z,70.96
2022-09-06T20:06:45.439Z,71.19
2022-09-06T20:09:15.972Z,71.63
2022-09-06T20:11:44.481Z,71.53
2022-09-06T20:14:13.734Z,71.50
2022-09-06T20:16:43.116Z,71.93
2022-09-06T20:19:13.055Z,72.28
2022-09-06T20:21:41.390Z,72.48
2022-09-06T20:24:09.899Z,72.00
2022-09-06T20:26:40.421Z,72.14
2022-09-06T20:29:08.608Z,71.62
2022-09-06T20:31:37.449Z,71.69
2022-09-06T20:34:06.560Z,72.04
2022-09-06T20:36:34.445Z,72.25
2022-09-06T20:39:02.929Z,72.32
2022-09-06T20:41:31.161Z,72.90
2022-09-06T20:44:01.344Z,72.74
2022-09-06T20:46:31.080Z,72.82
2022-09-06T20:49:02.004Z,72.56
2022-09-06T20:51:30.359Z,72.26
2022-09-06T20:53:59.378Z,72.48
2022-09-06T20:56:28.966Z,72.34
2022-09-06T20:58:59.410Z,73.26
2022-09-06T21:01:30.311Z,73.63
2022-09-06T21:03:59.598Z,73.55
2022-09-06T21:06:28.936Z,72.82
2022-09-06T21:08:57.058Z,73.51
2022-09-06T21:11:25.265Z,73.72
2022-09-06T21:13:55.849Z,73.70
2022-09-06T21:16:25.243Z,74.04
2022-09-06T21:18:58.373Z,73.90
2022-09-06T21:21:26.938Z,73.88
2022-09-06T21:23:55.112Z,73.84
2022-09-06T21:26:23.462Z,73.39
2022-09-06T21:28:51.606Z,73.50
2022-09-06T21:31:22.063Z,72.96
2022-09-06T21:33:52.581Z,73.66
2022-09-06T21:36:23.305Z,73.89
2022-09-06T21:38:53.769Z,74.42
2022-09-06T21:41:21.994Z,74.68
2022-09-06T21:43:53.136Z,74.61
2022-09-06T21:46:22.461Z,74.68
2022-09-06T21:48:51.810Z,73.97
2022-09-06T21:51:24.578Z,73.91
2022-09-06T21:53:53.492Z,73.44
2022-09-06T21:56:23.867Z,73.25
2022-09-06T21:58:52.820Z,72.65
2022-09-06T22:01:20.889Z,72.40
2022-09-06T22:03:48.836Z,72.26
2022-09-06T22:06:19.477Z,71.65
2022-09-06T22:08:49.455Z,71.34
2022-09-06T22:11:19.117Z,71.46
2022-09-06T22:13:47.932Z,71.09
2022-09-06T22:16:17.938Z,70.91
2022-09-06T22:18:46.197Z,70.84
2022-09-06T22:21:18.514Z,70.44
2022-09-06T22:23:52.748Z,70.31
2022-09-06T22:26:21.430Z,70.15
2022-09-06T22:28:49.378Z,70.39
2022-09-06T22:31:17.353Z,70.73
2022-09-06T22:33:45.646Z,70.98
2022-09-06T22:36:13.635Z,71.30
2022-09-06T22:38:41.615Z,71.37
2022-09-06T22:41:11.349Z,71.42
2022-09-06T22:43:39.262Z,71.05
2022-09-06T22:46:08.849Z,71.23
2022-09-06T22:48:37.406Z,71.10
2022-09-06T22:51:06.185Z,71.65
2022-09-06T22:53:36.069Z,71.46
2022-09-06T22:56:05.085Z,71.74
2022-09-06T22:58:34.713Z,71.27
2022-09-06T23:01:08.281Z,70.80
2022-09-06T23:03:36.944Z,70.05
2022-09-06T23:06:05.474Z,69.43
2022-09-06T23:08:33.786Z,68.26
2022-09-06T23:11:05.703Z,68.21
2022-09-06T23:13:35.154Z,67.64
2022-09-06T23:16:04.895Z,67.29
2022-09-06T23:18:33.390Z,66.52
2022-09-06T23:21:05.742Z,66.46
2022-09-06T23:23:33.849Z,66.56
2022-09-06T23:26:06.601Z,66.39
2022-09-06T23:28:36.456Z,66.51
2022-09-06T23:31:05.213Z,66.72
2022-09-06T23:33:35.147Z,67.05
2022-09-06T23:36:03.908Z,66.58
2022-09-06T23:38:33.603Z,66.47
2022-09-06T23:41:01.916Z,66.53
2022-09-06T23:43:30.232Z,66.76
2022-09-06T23:46:00.441Z,66.32
2022-09-06T23:48:28.726Z,66.14
2022-09-06T23:50:56.666Z,66.05
2022-09-06T23:53:24.741Z,65.61
2022-09-06T23:55:52.804Z,66.08
2022-09-06T23:58:21.309Z,66.01
